This is the latest recevied weather packets stored in our database for station/object NL3D. If no packets are shown the sender has not sent any weather packets the latest 1 day(s).
| Time | Temp. | Humidity | Pressure | Rain* | Wind** | Luminosity | Snow |
|---|---|---|---|---|---|---|---|
| 1778004822 | 6.67° C | 90% | 1005.3 hPa | 0 mm | 0.45 m/s, 23° | 144 W/m² | - |
| 1778004519 | 6.67° C | 89% | 1005.3 hPa | 0 mm | 1.34 m/s, 22° | 147 W/m² | - |
| 1778004215 | 6.67° C | 89% | 1005.4 hPa | 0 mm | 0.89 m/s, 48° | 147 W/m² | - |
| 1778003912 | 6.67° C | 89% | 1005.3 hPa | 0 mm | 0.89 m/s, 57° | 141 W/m² | - |
| 1778003608 | 6.11° C | 90% | 1005.3 hPa | 0 mm | 0.45 m/s, 29° | 146 W/m² | - |
| 1778003305 | 6.11° C | 91% | 1005.3 hPa | 0 mm | 0.45 m/s, 35° | 139 W/m² | - |
| 1778003002 | 6.11° C | 92% | 1005.2 hPa | 0 mm | 1.34 m/s, 34° | 127 W/m² | - |
| 1778002698 | 6.11° C | 92% | 1005.3 hPa | 0 mm | 0.89 m/s, 28° | 120 W/m² | - |
| 1778002395 | 6.11° C | 92% | 1005.3 hPa | 0 mm | 0 m/s | 116 W/m² | - |
| 1778002092 | 5.56° C | 92% | 1005.2 hPa | 0 mm | 0 m/s | 105 W/m² | - |
| 1778001789 | 5.56° C | 96% | 1005.2 hPa | 0 mm | 0.45 m/s, 69° | 106 W/m² | - |
| 1778001484 | 5.56° C | 97% | 1005.1 hPa | 0 mm | 0.45 m/s, 63° | 116 W/m² | - |
| 1778001181 | 5.56° C | 98% | 1004.9 hPa | 0 mm | 0.45 m/s, 47° | 116 W/m² | - |
| 1778000877 | 5.56° C | 99% | 1005 hPa | 0 mm | 0.45 m/s, 120° | 109 W/m² | - |
| 1778000575 | 5° C | 99% | 1005 hPa | 0 mm | 0.89 m/s, 99° | 106 W/m² | - |
| 1778000275 | 5° C | 99% | 1004.9 hPa | 0 mm | 0 m/s | 102 W/m² | - |
| 1777999971 | 5° C | 99% | 1005 hPa | 0 mm | 0 m/s | 94 W/m² | - |
| 1777999667 | 5° C | 99% | 1004.7 hPa | 0 mm | 0 m/s | 85 W/m² | - |
| 1777999364 | 5° C | 99% | 1004.7 hPa | 0 mm | 0.89 m/s, 156° | 81 W/m² | - |
| 1777999063 | 5° C | 99% | 1004.7 hPa | 0 mm | 0.45 m/s, 46° | 78 W/m² | - |
| 1777998761 | 4.44° C | 99% | 1004.6 hPa | 0 mm | 0 m/s | 78 W/m² | - |
| 1777998457 | 5° C | 99% | 1004.7 hPa | 0 mm | 0 m/s | 64 W/m² | - |
| 1777998155 | 4.44° C | 99% | 1004.4 hPa | 0 mm | 0.89 m/s, 118° | 61 W/m² | - |
| 1777997851 | 4.44° C | 99% | 1004.4 hPa | 0 mm | 0.45 m/s, 98° | 58 W/m² | - |
| 1777997550 | 4.44° C | 99% | 1004.5 hPa | 0 mm | 0 m/s | 52 W/m² | - |
* Rain latest hour (hover to see other rain measurements)
** Current wind speed in m/s (hover to see current wind gust speed)